Time;durP1;ratioP1;P1;durP2;ratioP2;P2;SDS_P1;SDS_P2;PMS_P1;PMS_P2;Temp;Humidity;BMP_temperature;BMP_pressure;BME280_temperature;BME280_humidity;BME280_pressure;Samples;Min_cycle;Max_cycle;Signal;HPM_P1;HPM_P2
2022/08/23 00:00:45;;;;;;;21.30;13.27;;;;;;;18.84;100.00;94164.56;6114352;23;20176;-74
2022/08/23 00:03:12;;;;;;;17.65;12.68;;;;;;;18.86;100.00;94157.16;6114958;23;20168;-74
2022/08/23 00:05:39;;;;;;;24.90;13.30;;;;;;;19.13;100.00;94161.84;6114187;23;20192;-75
2022/08/23 00:08:06;;;;;;;23.43;14.27;;;;;;;19.25;100.00;94170.09;6113548;23;20172;-74
2022/08/23 00:10:33;;;;;;;18.40;12.45;;;;;;;19.30;100.00;94164.00;6113655;23;20234;-74
2022/08/23 00:13:01;;;;;;;19.05;13.48;;;;;;;19.34;100.00;94170.25;6114737;23;20180;-75
2022/08/23 00:15:28;;;;;;;23.20;13.33;;;;;;;19.34;100.00;94175.53;6113410;23;20168;-75
2022/08/23 00:17:55;;;;;;;20.58;13.65;;;;;;;19.35;100.00;94177.91;6113894;23;20176;-75
2022/08/23 00:20:22;;;;;;;24.73;13.50;;;;;;;19.37;100.00;94174.97;6113297;23;20663;-75
2022/08/23 00:22:49;;;;;;;24.40;14.20;;;;;;;19.34;100.00;94165.00;6116731;23;20175;-75
2022/08/23 00:25:16;;;;;;;20.27;13.67;;;;;;;19.31;100.00;94165.59;6116253;23;20204;-73
2022/08/23 00:27:44;;;;;;;20.17;13.70;;;;;;;19.32;100.00;94164.50;6115633;23;20619;-75
2022/08/23 00:30:14;;;;;;;20.17;13.53;;;;;;;19.38;100.00;94166.78;6114476;23;20172;-75
2022/08/23 00:32:42;;;;;;;18.93;13.20;;;;;;;19.37;100.00;94167.06;6115371;23;20786;-75
2022/08/23 00:35:11;;;;;;;21.58;14.30;;;;;;;19.53;100.00;94166.63;6116084;23;20164;-75
2022/08/23 00:37:38;;;;;;;23.98;14.60;;;;;;;19.64;100.00;94165.41;6114893;23;20186;-75
2022/08/23 00:40:08;;;;;;;21.77;14.95;;;;;;;19.77;100.00;94177.06;6114491;23;20179;-75
2022/08/23 00:48:12;;;;;;;32.50;17.02;;;;;;;19.57;100.00;94164.16;6114092;23;20167;-75
2022/08/23 00:50:43;;;;;;;28.15;17.73;;;;;;;19.56;100.00;94166.06;6114174;23;20180;-74
2022/08/23 00:53:14;;;;;;;29.90;17.90;;;;;;;19.54;100.00;94168.16;6114938;23;20210;-74
2022/08/23 00:55:44;;;;;;;28.33;17.50;;;;;;;19.52;100.00;94167.69;6115182;23;20160;-75
2022/08/23 00:58:12;;;;;;;26.48;17.58;;;;;;;19.52;100.00;94169.53;6113318;23;20180;-73
2022/08/23 01:00:40;;;;;;;25.77;17.83;;;;;;;19.47;100.00;94170.38;6114426;23;20172;-75
2022/08/23 01:03:10;;;;;;;33.47;16.92;;;;;;;19.51;100.00;94170.59;6115553;23;20168;-73
2022/08/23 01:05:46;;;;;;;23.92;17.23;;;;;;;19.50;100.00;94171.66;6115460;23;20897;-74
2022/08/23 01:08:13;;;;;;;28.65;17.85;;;;;;;19.43;100.00;94155.41;6113494;23;20168;-74
2022/08/23 01:10:47;;;;;;;27.58;17.02;;;;;;;19.48;100.00;94169.31;6115098;23;20173;-73
2022/08/23 01:13:19;;;;;;;26.85;18.00;;;;;;;19.47;100.00;94174.88;6115924;23;20222;-74
2022/08/23 01:15:54;;;;;;;30.70;18.05;;;;;;;19.48;100.00;94173.81;6116394;23;20161;-74
2022/08/23 01:18:26;;;;;;;28.63;18.40;;;;;;;19.51;100.00;94175.88;6114591;23;20160;-74
2022/08/23 01:20:59;;;;;;;27.63;19.48;;;;;;;19.46;100.00;94174.09;6116196;23;20214;-75
2022/08/23 01:23:34;;;;;;;29.80;18.65;;;;;;;19.45;100.00;94174.38;6116244;23;20161;-74
2022/08/23 01:26:01;;;;;;;30.50;19.48;;;;;;;19.42;100.00;94177.59;6113487;23;20650;-75
2022/08/23 01:28:28;;;;;;;30.00;18.48;;;;;;;19.44;100.00;94181.50;6114674;23;20173;-75
2022/08/23 01:30:55;;;;;;;32.17;21.65;;;;;;;19.43;100.00;94184.41;6116085;23;20640;-75
2022/08/23 01:33:23;;;;;;;36.50;20.58;;;;;;;19.46;100.00;94179.34;6114989;23;20168;-75
2022/08/23 01:35:53;;;;;;;31.85;21.75;;;;;;;19.36;100.00;94168.16;6115779;23;20169;-75
2022/08/23 01:38:21;;;;;;;34.35;21.50;;;;;;;19.46;100.00;94182.00;6114158;23;20179;-75
2022/08/23 01:40:50;;;;;;;32.72;22.05;;;;;;;19.45;100.00;94179.66;6115874;23;20192;-75
2022/08/23 01:43:18;;;;;;;35.70;21.90;;;;;;;19.47;100.00;94180.16;6115857;23;20176;-75
2022/08/23 01:45:46;;;;;;;32.83;21.63;;;;;;;19.46;100.00;94174.09;6115408;23;20737;-76
2022/08/23 01:48:17;;;;;;;34.15;22.58;;;;;;;19.41;100.00;94176.78;6114462;23;20183;-75
2022/08/23 01:50:45;;;;;;;32.35;20.30;;;;;;;19.45;100.00;94174.38;6115292;23;20164;-75
2022/08/23 01:53:12;;;;;;;28.92;18.77;;;;;;;19.48;100.00;94173.81;6114728;23;21166;-75
2022/08/23 01:55:42;;;;;;;23.13;17.17;;;;;;;19.45;100.00;94177.78;6114978;23;20169;-74
2022/08/23 01:58:10;;;;;;;25.02;18.35;;;;;;;19.31;100.00;94176.13;6113128;23;20662;-75
2022/08/23 02:00:40;;;;;;;25.48;17.60;;;;;;;19.39;100.00;94164.97;6114765;23;20183;-74
2022/08/23 02:03:11;;;;;;;24.88;16.48;;;;;;;19.30;100.00;94162.16;6115408;23;20180;-75
2022/08/23 02:05:38;;;;;;;24.35;16.90;;;;;;;19.37;100.00;94157.31;6115622;23;20184;-74
2022/08/23 02:10:47;;;;;;;24.02;15.88;;;;;;;19.43;100.00;94168.59;6113988;23;20545;-74
2022/08/23 02:13:15;;;;;;;22.80;15.68;;;;;;;19.45;100.00;94177.00;6114655;23;20173;-74
2022/08/23 02:15:43;;;;;;;24.50;16.45;;;;;;;19.47;100.00;94172.22;6114818;23;20172;-74
2022/08/23 02:18:11;;;;;;;24.02;16.52;;;;;;;19.45;100.00;94164.59;6113808;23;20182;-76
2022/08/23 02:20:39;;;;;;;25.20;16.70;;;;;;;19.39;100.00;94162.34;6114270;23;20177;-75
2022/08/23 02:23:06;;;;;;;21.65;15.90;;;;;;;19.30;100.00;94156.09;6113936;23;20567;-73
2022/08/23 02:25:32;;;;;;;24.10;16.92;;;;;;;19.53;100.00;94155.28;6114881;23;20199;-74
2022/08/23 02:27:59;;;;;;;23.90;16.83;;;;;;;19.61;100.00;94152.00;6114127;23;20223;-74
2022/08/23 02:30:27;;;;;;;26.40;16.38;;;;;;;19.62;100.00;94153.56;6113626;23;20176;-74
2022/08/23 02:32:54;;;;;;;24.70;16.35;;;;;;;19.65;100.00;94155.63;6115605;23;20168;-74
2022/08/23 02:35:21;;;;;;;25.85;16.40;;;;;;;19.57;100.00;94153.63;6116240;23;20164;-74
2022/08/23 02:37:48;;;;;;;22.35;15.68;;;;;;;19.53;100.00;94152.66;6115375;23;20176;-75
2022/08/23 02:40:15;;;;;;;28.80;15.90;;;;;;;19.53;100.00;94163.19;6113931;23;20272;-74
2022/08/23 02:42:42;;;;;;;23.40;16.02;;;;;;;19.54;100.00;94154.19;6115071;23;20172;-75
2022/08/23 02:45:10;;;;;;;23.98;16.77;;;;;;;19.57;100.00;94156.25;6114944;23;20580;-74
2022/08/23 02:47:39;;;;;;;25.17;15.88;;;;;;;19.54;100.00;94164.75;6114473;23;20169;-74
2022/08/23 02:50:07;;;;;;;22.15;15.55;;;;;;;19.47;100.00;94151.16;6113228;23;20165;-74
2022/08/23 02:52:35;;;;;;;20.35;13.40;;;;;;;19.50;100.00;94161.91;6112102;23;20173;-74
2022/08/23 02:55:02;;;;;;;22.42;13.57;;;;;;;19.46;100.00;94157.47;6114070;23;20164;-74
2022/08/23 02:57:29;;;;;;;22.05;13.55;;;;;;;19.42;100.00;94156.50;6112908;23;20168;-74
2022/08/23 02:59:56;;;;;;;20.00;13.27;;;;;;;19.34;100.00;94155.22;6113297;23;20168;-75
2022/08/23 03:02:24;;;;;;;18.88;13.05;;;;;;;19.34;100.00;94152.59;6111261;23;20986;-74
2022/08/23 03:04:52;;;;;;;18.90;12.75;;;;;;;19.26;100.00;94150.59;6113547;23;20179;-74
2022/08/23 03:07:18;;;;;;;18.92;12.13;;;;;;;19.25;100.00;94149.81;6113641;23;20271;-74
2022/08/23 03:09:45;;;;;;;13.65;10.98;;;;;;;19.30;100.00;94148.19;6113294;23;20180;-74
2022/08/23 03:12:12;;;;;;;16.17;10.88;;;;;;;19.32;100.00;94146.84;6113325;23;20498;-75
2022/08/23 03:14:39;;;;;;;18.40;10.52;;;;;;;19.35;100.00;94148.91;6113808;23;20180;-75
2022/08/23 03:17:07;;;;;;;14.38;10.05;;;;;;;19.43;100.00;94147.50;6113976;23;20171;-75
2022/08/23 03:19:34;;;;;;;22.70;9.68;;;;;;;19.61;100.00;94159.91;6113671;23;20168;-75
2022/08/23 03:22:02;;;;;;;12.25;9.45;;;;;;;19.87;100.00;94140.00;6113701;23;20169;-74
2022/08/23 03:24:29;;;;;;;13.40;8.98;;;;;;;20.05;100.00;94151.59;6112744;23;20181;-74
2022/08/23 03:26:56;;;;;;;13.20;8.68;;;;;;;19.93;100.00;94146.75;6113760;23;20208;-74
2022/08/23 03:29:24;;;;;;;11.32;9.02;;;;;;;19.69;100.00;94146.06;6113709;23;20172;-74
2022/08/23 03:31:51;;;;;;;14.43;10.23;;;;;;;19.60;100.00;94147.78;6113631;23;20726;-73
2022/08/23 03:34:18;;;;;;;13.07;9.95;;;;;;;19.50;100.00;94150.59;6111957;23;20900;-74
2022/08/23 03:36:45;;;;;;;17.00;11.05;;;;;;;19.46;100.00;94162.75;6113093;23;20168;-74
2022/08/23 03:39:13;;;;;;;15.48;10.52;;;;;;;19.47;100.00;94159.06;6113667;23;20183;-74
2022/08/23 03:41:40;;;;;;;16.48;11.02;;;;;;;19.36;100.00;94163.66;6113043;23;20183;-74
2022/08/23 03:44:07;;;;;;;20.25;11.52;;;;;;;19.32;100.00;94169.78;6112738;23;20173;-73
2022/08/23 03:46:34;;;;;;;13.95;11.30;;;;;;;19.31;100.00;94165.59;6113543;23;20236;-74
2022/08/23 03:49:02;;;;;;;20.45;12.48;;;;;;;19.29;100.00;94176.38;6114022;23;20226;-74
2022/08/23 03:51:31;;;;;;;20.10;11.82;;;;;;;19.31;100.00;94171.63;6114104;23;20646;-74
2022/08/23 03:53:58;;;;;;;18.80;12.40;;;;;;;19.18;100.00;94178.38;6113516;23;20644;-75
2022/08/23 03:56:29;;;;;;;18.50;11.48;;;;;;;19.06;100.00;94191.16;6112996;23;20176;-75
2022/08/23 03:58:57;;;;;;;14.87;11.63;;;;;;;19.08;100.00;94201.41;6115625;23;20191;-75
2022/08/23 04:01:24;;;;;;;16.70;11.25;;;;;;;19.07;100.00;94208.56;6114789;23;20646;-74
2022/08/23 04:03:51;;;;;;;19.20;11.35;;;;;;;19.02;100.00;94219.13;6114496;23;20226;-75
2022/08/23 04:06:18;;;;;;;14.60;10.68;;;;;;;19.04;100.00;94218.88;6113060;23;20200;-75
2022/08/23 04:08:46;;;;;;;18.73;10.97;;;;;;;18.94;100.00;94230.28;6113813;23;20176;-75
2022/08/23 04:11:13;;;;;;;15.30;10.30;;;;;;;19.11;100.00;94240.38;6115368;23;20172;-74
2022/08/23 04:13:42;;;;;;;14.83;10.77;;;;;;;19.40;100.00;94240.31;6115382;23;20620;-74
2022/08/23 04:16:09;;;;;;;25.53;15.27;;;;;;;19.28;100.00;94240.69;6114408;23;20230;-74
2022/08/23 04:18:36;;;;;;;26.50;16.93;;;;;;;19.05;100.00;94244.13;6113847;23;20183;-74
2022/08/23 04:21:08;;;;;;;22.77;16.40;;;;;;;19.00;100.00;94244.97;6115260;23;20173;-74
2022/08/23 04:23:35;;;;;;;26.73;16.30;;;;;;;19.01;100.00;94248.41;6114892;23;20157;-74
2022/08/23 04:26:03;;;;;;;35.93;21.07;;;;;;;18.86;100.00;94243.28;6114161;23;20218;-74
2022/08/23 04:28:30;;;;;;;33.40;22.37;;;;;;;18.93;100.00;94257.69;6113246;23;20247;-74
2022/08/23 04:30:59;;;;;;;35.53;23.73;;;;;;;18.86;100.00;94256.44;6114581;23;20176;-74
2022/08/23 04:33:27;;;;;;;40.27;24.80;;;;;;;18.83;100.00;94251.72;6103012;23;20169;-74
2022/08/23 04:35:54;;;;;;;39.03;25.27;;;;;;;18.74;100.00;94256.03;6113633;23;20172;-75
2022/08/23 04:38:21;;;;;;;43.03;26.17;;;;;;;18.61;100.00;94246.94;6112701;23;20175;-75
2022/08/23 04:43:31;;;;;;;45.30;25.03;;;;;;;18.35;100.00;94254.25;6114883;23;20160;-74
2022/08/23 04:46:00;;;;;;;41.60;24.73;;;;;;;18.43;100.00;94253.66;6114069;23;20203;-74
2022/08/23 04:48:27;;;;;;;42.90;25.87;;;;;;;18.40;100.00;94237.63;6112381;23;20176;-74
2022/08/23 04:50:54;;;;;;;49.93;28.00;;;;;;;18.51;100.00;94247.81;6115018;23;20526;-73
2022/08/23 04:53:22;;;;;;;46.30;26.60;;;;;;;18.51;100.00;94245.19;6114252;23;20672;-74
2022/08/23 04:55:50;;;;;;;48.13;28.27;;;;;;;18.49;100.00;94249.94;6114809;23;20177;-73
2022/08/23 04:58:18;;;;;;;46.60;27.13;;;;;;;18.51;100.00;94249.66;6112826;23;20207;-75
2022/08/23 05:00:45;;;;;;;44.70;26.60;;;;;;;18.57;100.00;94256.44;6112691;23;20183;-74
2022/08/23 05:03:13;;;;;;;45.60;27.47;;;;;;;18.56;100.00;94249.59;6113189;23;20176;-73
2022/08/23 05:05:40;;;;;;;45.60;27.80;;;;;;;18.53;100.00;94258.84;6114639;23;20256;-73
2022/08/23 05:08:08;;;;;;;41.57;26.07;;;;;;;18.67;100.00;94265.03;6113363;23;20226;-73
2022/08/23 05:10:35;;;;;;;42.93;25.47;;;;;;;18.99;100.00;94267.09;6113476;23;20215;-73
2022/08/23 05:13:02;;;;;;;41.40;25.53;;;;;;;19.27;100.00;94273.41;6114153;23;20165;-75
2022/08/23 05:15:28;;;;;;;38.03;24.97;;;;;;;19.36;100.00;94276.19;6114855;23;20497;-74
2022/08/23 05:17:56;;;;;;;35.70;24.10;;;;;;;19.41;100.00;94278.81;6114412;23;20169;-73
2022/08/23 05:20:27;;;;;;;35.93;23.23;;;;;;;19.44;100.00;94283.50;6112863;23;20183;-74
2022/08/23 05:22:54;;;;;;;32.77;23.27;;;;;;;19.52;100.00;94286.31;6114886;23;20547;-73
2022/08/23 05:25:21;;;;;;;34.70;22.50;;;;;;;19.51;100.00;94290.00;6114761;23;20727;-73
2022/08/23 05:27:48;;;;;;;32.20;22.97;;;;;;;19.52;100.00;94298.69;6114389;23;20828;-73
2022/08/23 05:30:15;;;;;;;37.65;21.10;;;;;;;19.50;100.00;94293.72;6112774;23;20507;-74
2022/08/23 05:32:42;;;;;;;30.63;20.93;;;;;;;19.51;100.00;94294.50;6113238;23;20172;-73
2022/08/23 05:35:09;;;;;;;31.13;21.48;;;;;;;19.53;100.00;94292.38;6115038;23;20612;-73
2022/08/23 05:37:37;;;;;;;28.77;18.77;;;;;;;19.62;100.00;94290.69;6115135;23;20164;-73
2022/08/23 05:40:05;;;;;;;25.50;18.57;;;;;;;19.62;100.00;94290.69;6114325;23;20175;-73
2022/08/23 05:42:32;;;;;;;29.17;19.90;;;;;;;19.58;100.00;94289.66;6113137;23;20172;-73
2022/08/23 05:44:59;;;;;;;27.20;18.73;;;;;;;19.66;100.00;94281.13;6114945;23;20176;-73
2022/08/23 05:47:26;;;;;;;29.27;18.48;;;;;;;19.75;100.00;94289.97;6114353;23;20207;-75
2022/08/23 05:49:55;;;;;;;26.40;18.98;;;;;;;19.77;100.00;94285.97;6114221;23;20632;-75
2022/08/23 05:52:22;;;;;;;28.77;19.48;;;;;;;19.82;100.00;94287.78;6112817;23;20578;-73
2022/08/23 05:54:50;;;;;;;25.85;19.08;;;;;;;19.90;100.00;94287.16;6115111;23;20203;-73
2022/08/23 05:57:17;;;;;;;31.27;20.13;;;;;;;19.95;100.00;94291.56;6113913;23;20168;-73
2022/08/23 05:59:44;;;;;;;30.83;19.23;;;;;;;19.98;100.00;94291.00;6114469;23;20182;-74
2022/08/23 06:02:11;;;;;;;30.58;19.10;;;;;;;19.90;100.00;94299.53;6113672;23;20199;-76
2022/08/23 06:04:37;;;;;;;28.50;19.45;;;;;;;19.90;100.00;94297.69;6113304;23;20226;-75
2022/08/23 06:07:05;;;;;;;27.38;19.20;;;;;;;19.98;100.00;94297.06;6114082;23;20196;-80
2022/08/23 06:09:32;;;;;;;23.83;17.58;;;;;;;20.06;100.00;94303.53;6106605;23;20520;-81
2022/08/23 06:12:00;;;;;;;27.55;17.08;;;;;;;20.11;100.00;94316.69;6114207;23;20223;-82
2022/08/23 06:14:27;;;;;;;26.95;16.98;;;;;;;20.12;100.00;94313.75;6113345;23;20250;-80
2022/08/23 06:16:54;;;;;;;25.58;16.55;;;;;;;20.17;100.00;94315.53;6114166;23;20172;-79
2022/08/23 06:19:21;;;;;;;27.52;17.40;;;;;;;20.22;100.00;94312.81;6112689;23;20176;-80
2022/08/23 06:21:49;;;;;;;21.33;15.05;;;;;;;20.25;100.00;94312.28;6116386;23;20172;-81
2022/08/23 06:24:17;;;;;;;24.17;16.05;;;;;;;20.24;100.00;94316.75;6115284;23;20172;-81
2022/08/23 06:26:45;;;;;;;26.42;17.08;;;;;;;20.37;100.00;94325.84;6115558;23;20211;-81
2022/08/23 06:29:15;;;;;;;23.13;17.55;;;;;;;20.45;100.00;94330.47;6115955;23;20180;-80
2022/08/23 06:31:47;;;;;;;23.80;16.35;;;;;;;20.39;100.00;94331.63;6116727;23;20206;-80
2022/08/23 06:34:18;;;;;;;23.65;15.38;;;;;;;20.37;100.00;94334.53;6114329;23;20200;-77
2022/08/23 06:36:46;;;;;;;25.70;16.98;;;;;;;20.34;100.00;94326.41;6115807;23;20153;-80
2022/08/23 06:39:14;;;;;;;21.15;15.65;;;;;;;20.43;100.00;94329.19;6115089;23;20172;-78
2022/08/23 06:41:41;;;;;;;26.80;16.58;;;;;;;20.49;100.00;94334.09;6114193;23;20184;-78
2022/08/23 06:44:08;;;;;;;32.20;20.88;;;;;;;20.34;100.00;94321.13;6113302;23;20206;-78
2022/08/23 06:46:38;;;;;;;32.35;21.83;;;;;;;20.31;100.00;94329.63;6114771;23;20196;-79
2022/08/23 06:49:06;;;;;;;30.42;21.58;;;;;;;20.37;100.00;94331.88;6116635;23;20168;-81
2022/08/23 06:51:35;;;;;;;25.38;17.58;;;;;;;20.47;100.00;94335.44;6116246;23;20651;-81
2022/08/23 06:54:05;;;;;;;25.67;18.20;;;;;;;20.50;100.00;94337.53;6115867;23;20184;-79
2022/08/23 06:56:32;;;;;;;23.85;17.20;;;;;;;20.53;100.00;94339.59;6116318;23;20157;-81
2022/08/23 06:59:02;;;;;;;30.95;18.85;;;;;;;20.47;100.00;94332.81;6116793;23;20168;-78
2022/08/23 07:01:33;;;;;;;23.20;15.70;;;;;;;20.77;100.00;94341.06;6115404;23;20168;-80
2022/08/23 07:04:02;;;;;;;22.40;15.02;;;;;;;21.04;100.00;94340.34;6119654;23;20167;-80
2022/08/23 07:06:30;;;;;;;23.73;15.35;;;;;;;21.22;100.00;94336.88;6120606;23;20219;-81
2022/08/23 07:08:57;;;;;;;20.80;15.88;;;;;;;21.27;100.00;94341.31;6119849;23;20184;-83
2022/08/23 07:11:25;;;;;;;21.15;15.43;;;;;;;21.38;100.00;94345.34;6120173;23;20173;-82
2022/08/23 07:13:52;;;;;;;26.50;17.48;;;;;;;21.43;100.00;94339.94;6120432;23;20946;-86
2022/08/23 07:16:20;;;;;;;24.30;17.65;;;;;;;21.46;100.00;94349.94;6116337;23;20218;-86
2022/08/23 07:18:48;;;;;;;24.83;16.58;;;;;;;21.45;100.00;94335.94;6120597;23;20169;-86
2022/08/23 07:21:18;;;;;;;22.88;15.68;;;;;;;21.61;100.00;94348.88;6118172;23;20172;-85
2022/08/23 07:23:46;;;;;;;20.92;14.23;;;;;;;21.66;100.00;94351.41;6119355;23;20640;-87
2022/08/23 07:26:14;;;;;;;23.73;14.15;;;;;;;21.73;100.00;94354.47;6111445;23;20172;-86
2022/08/23 07:28:43;;;;;;;19.73;14.20;;;;;;;21.90;100.00;94341.47;6117751;23;20188;-87
2022/08/23 07:31:13;;;;;;;17.88;12.90;;;;;;;22.00;100.00;94349.16;6119436;23;20173;-88
2022/08/23 07:33:41;;;;;;;19.50;13.38;;;;;;;22.11;100.00;94341.81;6121023;23;20161;-87
2022/08/23 07:36:09;;;;;;;18.10;12.35;;;;;;;22.32;100.00;94354.31;6120204;23;20174;-87
2022/08/23 07:38:37;;;;;;;21.23;14.43;;;;;;;22.36;100.00;94350.00;6119507;23;20244;-86
2022/08/23 07:41:05;;;;;;;21.58;14.65;;;;;;;22.42;100.00;94350.66;6120503;23;20169;-87
2022/08/23 07:43:32;;;;;;;24.00;16.25;;;;;;;22.43;100.00;94353.00;6120720;23;20176;-87
2022/08/23 07:46:00;;;;;;;20.45;14.63;;;;;;;22.39;100.00;94353.91;6120882;23;20175;-87
2022/08/23 07:48:26;;;;;;;26.85;15.40;;;;;;;22.39;100.00;94359.22;6119983;23;20203;-86
2022/08/23 07:50:54;;;;;;;23.65;15.45;;;;;;;22.38;100.00;94357.63;6119936;23;20172;-86
2022/08/23 07:53:21;;;;;;;23.42;15.45;;;;;;;22.41;100.00;94365.78;6120527;23;20168;-87
2022/08/23 07:55:49;;;;;;;21.30;14.93;;;;;;;22.35;100.00;94359.03;6120133;23;20165;-87
2022/08/23 07:58:16;;;;;;;20.23;15.18;;;;;;;22.35;100.00;94348.44;6120873;23;20195;-87
2022/08/23 08:00:43;;;;;;;18.60;14.93;;;;;;;22.49;100.00;94356.31;6120181;23;20179;-87
2022/08/23 08:03:12;;;;;;;20.80;14.30;;;;;;;22.49;100.00;94345.72;6120107;23;20685;-87
2022/08/23 08:05:39;;;;;;;23.98;15.98;;;;;;;22.42;100.00;94371.88;6120693;23;20175;-87
2022/08/23 08:08:07;;;;;;;19.75;14.88;;;;;;;22.41;100.00;94379.03;6120187;23;20192;-85
2022/08/23 08:10:37;;;;;;;21.50;14.93;;;;;;;22.48;100.00;94362.72;6120852;23;20168;-87
2022/08/23 08:13:05;;;;;;;21.48;14.93;;;;;;;22.69;100.00;94368.34;6121226;23;20670;-87
2022/08/23 08:15:32;;;;;;;20.63;14.43;;;;;;;22.88;100.00;94367.13;6118722;23;20183;-86
2022/08/23 08:17:59;;;;;;;21.08;15.57;;;;;;;22.96;100.00;94373.56;6120401;23;20643;-88
2022/08/23 08:20:27;;;;;;;19.40;14.52;;;;;;;23.07;99.78;94373.00;6120530;23;20259;-86
2022/08/23 08:22:54;;;;;;;25.10;15.13;;;;;;;23.11;98.47;94370.53;6120643;23;20222;-88
2022/08/23 08:25:21;;;;;;;20.67;14.90;;;;;;;23.16;97.23;94381.03;6120392;23;20256;-86
2022/08/23 08:27:48;;;;;;;23.20;14.90;;;;;;;23.22;97.02;94393.06;6119399;23;20671;-88
2022/08/23 08:30:16;;;;;;;26.98;15.23;;;;;;;23.25;97.31;94386.38;6120550;23;20172;-78
2022/08/23 08:32:43;;;;;;;23.17;15.57;;;;;;;23.18;96.61;94384.16;6118609;23;20160;-77
2022/08/23 08:35:10;;;;;;;20.58;14.40;;;;;;;23.22;96.87;94387.78;6118548;23;20655;-77
2022/08/23 08:37:38;;;;;;;19.85;14.73;;;;;;;23.28;97.99;94370.63;6118450;23;20165;-78
2022/08/23 08:40:05;;;;;;;20.73;15.18;;;;;;;23.64;97.06;94389.09;6117835;23;20947;-79
2022/08/23 08:42:59;;;;;;;22.80;15.75;;;;;;;23.82;96.69;94382.00;6119525;23;20179;-79
2022/08/23 08:45:32;;;;;;;20.85;14.23;;;;;;;23.83;95.59;94380.91;6119994;23;20171;-79
2022/08/23 08:48:05;;;;;;;20.48;15.30;;;;;;;23.61;94.56;94382.53;6119660;23;20497;-81
2022/08/23 08:50:36;;;;;;;25.27;16.38;;;;;;;23.33;95.13;94385.63;6119667;23;20165;-79
2022/08/23 08:53:08;;;;;;;21.13;15.73;;;;;;;23.09;97.61;94373.47;6119339;23;20169;-77
2022/08/23 08:55:42;;;;;;;26.17;16.30;;;;;;;23.02;97.68;94373.13;6119255;23;20658;-79
2022/08/23 08:58:19;;;;;;;22.83;15.02;;;;;;;23.03;99.51;94368.63;6119476;23;20623;-79
2022/08/23 09:00:47;;;;;;;26.25;16.38;;;;;;;23.04;99.22;94357.69;6119489;23;20180;-77
2022/08/23 09:03:19;;;;;;;23.77;16.05;;;;;;;22.98;99.52;94340.34;6119605;23;20169;-78
2022/08/23 09:05:56;;;;;;;25.33;16.55;;;;;;;23.12;99.79;94350.88;6120196;23;20153;-78
2022/08/23 09:08:40;;;;;;;23.17;16.75;;;;;;;22.97;98.66;94327.41;6119483;23;20180;-77
2022/08/23 09:11:16;;;;;;;24.58;16.85;;;;;;;23.00;99.46;94342.72;6117600;23;20160;-77
2022/08/23 09:14:05;;;;;;;24.65;16.90;;;;;;;22.99;100.00;94341.94;6119065;23;20638;-79
2022/08/23 09:16:43;;;;;;;28.70;15.73;;;;;;;23.00;99.78;94342.72;6119072;23;20176;-79
2022/08/23 09:19:10;;;;;;;21.00;15.93;;;;;;;23.08;98.80;94329.50;6119822;23;20167;-79
2022/08/23 09:21:43;;;;;;;23.35;16.50;;;;;;;23.22;98.57;94334.72;6119284;23;20263;-77
2022/08/23 09:24:10;;;;;;;21.77;16.70;;;;;;;23.40;98.42;94341.72;6118589;23;20171;-78
2022/08/23 09:26:37;;;;;;;20.38;14.20;;;;;;;23.56;98.09;94342.88;6117359;23;20361;-78
2022/08/23 09:29:13;;;;;;;21.65;16.00;;;;;;;23.83;95.94;94349.84;6119303;23;20157;-78
2022/08/23 09:31:44;;;;;;;23.70;16.77;;;;;;;23.96;94.80;94335.66;6119701;23;20164;-79
2022/08/23 09:34:17;;;;;;;16.17;11.18;;;;;;;24.13;93.37;94332.28;6120260;23;20165;-77
2022/08/23 09:36:44;;;;;;;21.73;16.02;;;;;;;24.46;92.01;94348.56;6119546;23;20230;-77
2022/08/23 09:39:27;;;;;;;22.23;12.88;;;;;;;24.66;89.60;94335.44;6119791;23;20175;-78
2022/08/23 09:41:54;;;;;;;14.18;11.40;;;;;;;25.05;89.05;94353.09;6118615;23;20161;-79
2022/08/23 09:44:33;;;;;;;23.95;15.60;;;;;;;25.35;89.55;94352.09;6119551;23;20168;-78
2022/08/23 09:47:11;;;;;;;23.10;15.85;;;;;;;25.52;86.58;94356.63;6119694;23;20161;-78
2022/08/23 09:49:40;;;;;;;20.45;16.17;;;;;;;25.62;86.57;94352.84;6119833;23;20225;-78
2022/08/23 09:52:18;;;;;;;23.75;16.08;;;;;;;25.66;85.84;94356.41;6118977;23;20194;-78
2022/08/23 09:54:55;;;;;;;25.80;16.58;;;;;;;25.60;85.03;94344.41;6119252;23;20214;-78
2022/08/23 09:57:26;;;;;;;20.77;14.90;;;;;;;25.59;86.17;94351.59;6119605;23;20167;-78
2022/08/23 09:59:55;;;;;;;20.52;13.90;;;;;;;25.72;86.10;94358.59;6119278;23;20168;-78
2022/08/23 10:02:29;;;;;;;16.92;11.90;;;;;;;25.96;85.84;94355.34;6119441;23;20172;-78
2022/08/23 10:05:00;;;;;;;19.52;14.25;;;;;;;26.01;83.81;94354.38;6119794;23;20148;-78
2022/08/23 10:07:35;;;;;;;18.10;14.07;;;;;;;25.94;82.79;94345.00;6119667;23;20181;-78
2022/08/23 10:10:23;;;;;;;20.60;13.70;;;;;;;25.99;81.42;94353.91;6119279;23;20164;-78
2022/08/23 10:12:51;;;;;;;17.23;13.27;;;;;;;25.91;81.67;94358.97;6118825;23;20515;-78
2022/08/23 10:15:18;;;;;;;16.88;12.85;;;;;;;25.83;81.36;94349.13;6119009;23;20175;-76
2022/08/23 10:17:53;;;;;;;19.25;13.07;;;;;;;26.10;81.58;94366.56;6119247;23;20172;-76
2022/08/23 10:20:32;;;;;;;21.02;13.45;;;;;;;26.27;83.38;94363.81;6119161;23;20666;-76
2022/08/23 10:23:10;;;;;;;18.63;13.68;;;;;;;26.50;80.17;94364.28;6119406;23;20194;-76
2022/08/23 10:25:41;;;;;;;21.55;14.07;;;;;;;26.35;78.84;94367.50;6118471;23;20172;-76
2022/08/23 10:31:12;;;;;;;17.88;12.57;;;;;;;26.46;81.97;94355.41;6119752;23;20517;-77
2022/08/23 10:33:46;;;;;;;17.88;12.30;;;;;;;26.79;79.62;94352.81;6119167;23;20160;-77
2022/08/23 10:36:18;;;;;;;19.23;12.73;;;;;;;26.98;78.23;94361.13;6119520;23;20681;-76
2022/08/23 10:38:50;;;;;;;17.67;11.43;;;;;;;27.12;76.89;94344.81;6119136;23;20175;-76
2022/08/23 10:41:33;;;;;;;23.88;13.05;;;;;;;27.18;76.96;94338.97;6119428;23;20163;-77
2022/08/23 10:44:23;;;;;;;20.00;13.02;;;;;;;27.22;76.66;94345.19;6119312;23;20157;-77
2022/08/23 10:47:02;;;;;;;20.35;12.15;;;;;;;27.19;74.66;94345.84;6119267;23;20234;-76
2022/08/23 10:49:35;;;;;;;18.75;11.75;;;;;;;26.96;74.99;94334.75;6119604;23;20153;-77
2022/08/23 10:52:05;;;;;;;15.00;11.80;;;;;;;26.97;75.74;94343.53;6119812;23;20169;-76
2022/08/23 10:54:45;;;;;;;13.18;10.50;;;;;;;27.00;75.42;94346.34;6118515;23;20176;-76
2022/08/23 10:57:16;;;;;;;11.27;10.07;;;;;;;26.90;76.85;94343.28;6118940;23;20156;-76
2022/08/23 10:59:45;;;;;;;13.32;10.35;;;;;;;26.95;76.24;94341.22;6119466;23;20172;-77
2022/08/23 11:02:27;;;;;;;14.40;9.88;;;;;;;27.17;76.51;94345.41;6118842;23;20172;-77
2022/08/23 11:05:06;;;;;;;12.65;9.38;;;;;;;27.43;73.83;94345.16;6119133;23;20165;-76
2022/08/23 11:07:36;;;;;;;14.05;9.93;;;;;;;27.70;72.49;94341.88;6118548;23;20185;-76
2022/08/23 11:10:15;;;;;;;13.73;9.18;;;;;;;28.01;72.67;94343.97;6118724;23;20245;-77
2022/08/23 11:12:55;;;;;;;13.57;9.10;;;;;;;28.09;71.00;94338.53;6119422;23;20160;-76
2022/08/23 11:15:41;;;;;;;13.77;10.00;;;;;;;28.21;69.42;94335.09;6119115;23;20214;-76
2022/08/23 11:18:10;;;;;;;11.52;8.48;;;;;;;28.16;68.14;94343.34;6118898;23;20152;-76
2022/08/23 11:21:04;;;;;;;15.38;9.02;;;;;;;28.05;67.48;94334.22;6119297;23;20172;-76
2022/08/23 11:23:44;;;;;;;10.13;8.75;;;;;;;28.22;70.79;94343.88;6118680;23;20623;-76
2022/08/23 11:26:35;;;;;;;10.48;8.93;;;;;;;28.02;67.85;94330.25;6118572;23;20168;-77
2022/08/23 11:29:27;;;;;;;15.40;9.25;;;;;;;28.01;69.21;94341.31;6117857;23;20192;-76
2022/08/23 11:32:01;;;;;;;10.63;9.15;;;;;;;28.10;69.74;94336.66;6118776;23;20565;-77
2022/08/23 11:34:31;;;;;;;12.15;9.00;;;;;;;28.30;68.71;94329.59;6118713;23;20159;-76
2022/08/23 11:37:48;;;;;;;10.07;8.30;;;;;;;28.46;67.98;94336.59;6118548;23;20176;-76